Time;durP1;ratioP1;P1;durP2;ratioP2;P2;SDS_P1;SDS_P2;PMS_P1;PMS_P2;Temp;Humidity;BMP_temperature;BMP_pressure;BME280_temperature;BME280_humidity;BME280_pressure;Samples;Min_cycle;Max_cycle;Signal;HPM_P1;HPM_P2
2021/05/28 00:00:58;;;;;;;6.93;2.85;;;13.30;78.80;;;;;;5066377;28;20036;-70
2021/05/28 00:03:24;;;;;;;7.78;3.35;;;13.30;78.90;;;;;;5051714;28;20067;-70
2021/05/28 00:05:50;;;;;;;11.50;3.83;;;13.30;79.00;;;;;;5060608;28;20051;-70
2021/05/28 00:08:16;;;;;;;12.65;3.78;;;13.30;78.90;;;;;;5050045;28;20116;-70
2021/05/28 00:10:42;;;;;;;7.75;3.20;;;13.30;78.90;;;;;;5050624;28;20847;-70
2021/05/28 00:13:08;;;;;;;8.40;3.95;;;13.30;78.90;;;;;;5067444;28;20044;-70
2021/05/28 00:15:34;;;;;;;7.13;3.35;;;13.30;78.90;;;;;;5057281;28;20036;-70
2021/05/28 00:18:00;;;;;;;7.95;3.72;;;13.20;78.80;;;;;;5049337;28;20028;-69
2021/05/28 00:20:26;;;;;;;7.35;3.45;;;13.20;78.90;;;;;;5051941;28;20051;-70
2021/05/28 00:22:51;;;;;;;8.80;3.88;;;13.20;78.90;;;;;;5063483;28;20037;-70
2021/05/28 00:25:17;;;;;;;7.55;4.15;;;13.20;78.90;;;;;;5054185;28;20036;-69
2021/05/28 00:27:44;;;;;;;10.43;3.92;;;13.20;79.00;;;;;;5053936;28;20025;-69
2021/05/28 00:30:10;;;;;;;13.10;4.15;;;13.20;79.00;;;;;;5052158;28;20537;-70
2021/05/28 00:32:36;;;;;;;9.63;4.22;;;13.10;78.90;;;;;;5053907;28;20055;-69
2021/05/28 00:35:03;;;;;;;9.52;4.35;;;13.10;78.80;;;;;;5049921;28;20471;-69
2021/05/28 00:37:29;;;;;;;7.63;4.30;;;13.10;78.70;;;;;;5060471;28;20040;-70
2021/05/28 00:39:55;;;;;;;9.75;3.95;;;13.10;78.80;;;;;;5049012;28;20033;-70
2021/05/28 00:42:20;;;;;;;9.82;4.07;;;13.10;78.80;;;;;;5049384;28;20068;-70
2021/05/28 00:44:46;;;;;;;13.23;5.13;;;13.10;78.80;;;;;;5052659;28;20378;-70
2021/05/28 00:47:11;;;;;;;10.23;4.95;;;13.00;78.70;;;;;;5060549;28;20040;-70
2021/05/28 00:49:37;;;;;;;9.15;4.32;;;13.00;78.80;;;;;;5061941;28;20110;-70
2021/05/28 00:52:03;;;;;;;9.65;4.72;;;13.00;78.70;;;;;;5061247;28;20202;-70
2021/05/28 00:54:30;;;;;;;8.00;4.20;;;13.00;78.70;;;;;;5052721;28;20053;-70
2021/05/28 00:56:55;;;;;;;12.32;5.38;;;13.00;78.70;;;;;;5051821;28;20041;-70
2021/05/28 00:59:23;;;;;;;8.57;4.57;;;13.00;78.70;;;;;;5068796;28;20085;-70
2021/05/28 01:01:48;;;;;;;9.00;4.55;;;13.00;78.80;;;;;;5057180;28;20041;-70
2021/05/28 01:04:14;;;;;;;11.95;4.38;;;13.00;78.80;;;;;;5061646;28;20453;-70
2021/05/28 01:06:40;;;;;;;16.80;5.13;;;12.90;78.70;;;;;;5064775;28;20458;-70
2021/05/28 01:09:07;;;;;;;10.15;4.85;;;12.90;78.70;;;;;;5067823;28;20690;-70
2021/05/28 01:11:34;;;;;;;9.27;4.57;;;12.90;78.80;;;;;;5065326;28;20032;-70
2021/05/28 01:14:00;;;;;;;11.70;4.93;;;12.90;78.70;;;;;;5051948;28;20060;-70
2021/05/28 01:16:27;;;;;;;10.93;5.32;;;12.90;78.70;;;;;;5051967;28;20029;-70
2021/05/28 01:18:52;;;;;;;10.02;4.68;;;12.80;78.80;;;;;;5057397;28;20032;-71
2021/05/28 01:21:20;;;;;;;10.50;5.70;;;12.80;78.90;;;;;;5068751;28;20036;-70
2021/05/28 01:23:46;;;;;;;16.10;5.43;;;12.80;79.00;;;;;;5053461;28;20033;-70
2021/05/28 01:26:12;;;;;;;10.63;5.07;;;12.80;79.10;;;;;;5051641;28;20029;-70
2021/05/28 01:28:38;;;;;;;11.60;6.43;;;12.80;79.30;;;;;;5065981;28;20203;-70
2021/05/28 01:31:03;;;;;;;11.55;6.32;;;12.80;79.40;;;;;;5057296;28;20181;-70
2021/05/28 01:33:30;;;;;;;10.85;4.78;;;12.80;79.50;;;;;;5060021;28;20471;-70
2021/05/28 01:35:58;;;;;;;11.00;6.13;;;12.90;79.60;;;;;;5057799;28;20059;-70
2021/05/28 01:38:25;;;;;;;9.10;5.57;;;12.90;79.70;;;;;;5072094;28;20028;-70
2021/05/28 01:40:51;;;;;;;13.48;6.00;;;13.00;79.80;;;;;;5053402;28;20094;-70
2021/05/28 01:43:16;;;;;;;11.52;5.93;;;13.00;79.90;;;;;;5051464;28;20169;-70
2021/05/28 01:45:42;;;;;;;10.65;6.07;;;13.00;79.80;;;;;;5057785;28;20210;-70
2021/05/28 01:48:08;;;;;;;12.65;6.57;;;13.00;79.90;;;;;;5065056;28;20043;-70
2021/05/28 01:50:43;;;;;;;10.73;6.10;;;13.00;80.00;;;;;;5060366;28;20131;-70
2021/05/28 01:53:14;;;;;;;10.30;6.35;;;13.10;80.10;;;;;;5060867;28;20055;-70
2021/05/28 01:55:40;;;;;;;13.65;6.93;;;13.00;80.10;;;;;;5067113;28;20033;-70
2021/05/28 01:58:18;;;;;;;10.10;6.85;;;13.00;80.20;;;;;;5063904;28;20029;-70
2021/05/28 02:00:46;;;;;;;10.38;6.32;;;13.00;80.30;;;;;;5054393;28;20028;-70
2021/05/28 02:03:12;;;;;;;9.95;7.25;;;13.10;80.10;;;;;;5053106;28;20028;-69
2021/05/28 02:05:38;;;;;;;12.35;6.53;;;13.10;80.00;;;;;;5052458;28;20041;-70
2021/05/28 02:08:04;;;;;;;9.85;6.30;;;13.00;80.00;;;;;;5052839;28;20087;-70
2021/05/28 02:10:30;;;;;;;11.93;6.50;;;13.00;80.10;;;;;;5059166;28;20060;-70
2021/05/28 02:12:57;;;;;;;11.95;6.82;;;13.00;80.20;;;;;;5068412;28;20036;-70
2021/05/28 02:15:23;;;;;;;10.35;6.53;;;13.00;81.00;;;;;;5064727;28;20041;-70
2021/05/28 02:17:53;;;;;;;12.10;7.10;;;12.90;80.30;;;;;;5054403;28;20118;-70
2021/05/28 02:20:19;;;;;;;12.38;7.18;;;12.80;80.40;;;;;;5056147;28;20102;-70
2021/05/28 02:22:45;;;;;;;13.15;7.97;;;12.80;80.50;;;;;;5078049;28;20028;-70
2021/05/28 02:25:13;;;;;;;11.25;6.43;;;12.80;80.50;;;;;;5065037;28;20360;-70
2021/05/28 02:27:39;;;;;;;11.32;7.18;;;12.80;80.50;;;;;;5049857;28;20036;-70
2021/05/28 02:30:06;;;;;;;10.25;6.65;;;12.80;80.50;;;;;;5062244;28;20072;-70
2021/05/28 02:32:32;;;;;;;13.20;7.10;;;12.80;80.50;;;;;;5063315;28;20435;-70
2021/05/28 02:34:58;;;;;;;11.93;8.23;;;12.90;80.50;;;;;;5064191;28;20427;-70
2021/05/28 02:37:24;;;;;;;14.73;7.90;;;12.90;80.60;;;;;;5050851;28;20414;-70
2021/05/28 02:39:50;;;;;;;12.07;6.80;;;13.00;80.50;;;;;;5051220;28;20040;-70
2021/05/28 02:42:15;;;;;;;12.18;7.45;;;13.00;80.30;;;;;;5069214;28;20390;-70
2021/05/28 02:44:41;;;;;;;12.23;6.68;;;13.00;80.30;;;;;;5067375;28;20470;-70
2021/05/28 02:47:07;;;;;;;11.35;7.68;;;13.00;80.30;;;;;;5071871;28;20536;-70
2021/05/28 02:49:33;;;;;;;12.27;7.45;;;13.00;80.10;;;;;;5059823;28;20025;-70
2021/05/28 02:51:59;;;;;;;12.82;8.52;;;13.00;80.00;;;;;;5050342;28;20059;-70
2021/05/28 02:54:25;;;;;;;11.63;7.90;;;12.90;79.90;;;;;;5049930;28;20498;-70
2021/05/28 02:56:51;;;;;;;10.57;7.03;;;12.90;80.00;;;;;;5056802;28;20335;-70
2021/05/28 02:59:17;;;;;;;12.52;7.03;;;12.80;80.20;;;;;;5050732;28;20131;-71
2021/05/28 03:01:42;;;;;;;10.73;7.07;;;12.80;80.40;;;;;;5059469;28;20523;-70
2021/05/28 03:04:08;;;;;;;13.43;7.82;;;12.80;80.50;;;;;;5063736;28;20483;-70
2021/05/28 03:06:34;;;;;;;11.23;6.40;;;12.80;80.50;;;;;;5060811;28;20087;-70
2021/05/28 03:08:59;;;;;;;14.05;8.02;;;12.80;80.50;;;;;;5055430;28;20037;-70
2021/05/28 03:11:25;;;;;;;11.35;6.50;;;12.80;80.40;;;;;;5053103;28;20051;-70
2021/05/28 03:13:51;;;;;;;10.52;6.32;;;12.80;80.50;;;;;;5057664;28;20036;-70
2021/05/28 03:16:16;;;;;;;10.45;6.68;;;12.90;80.50;;;;;;5055971;28;20423;-70
2021/05/28 03:18:51;;;;;;;10.25;7.50;;;13.00;80.50;;;;;;5062283;28;20025;-70
2021/05/28 03:23:51;;;;;;;10.90;6.75;;;13.00;80.30;;;;;;5049556;28;20390;-70
2021/05/28 03:26:17;;;;;;;12.90;7.85;;;13.00;80.20;;;;;;5053054;28;20052;-70
2021/05/28 03:28:43;;;;;;;12.77;7.60;;;13.00;80.00;;;;;;5064313;28;20052;-70
2021/05/28 03:31:09;;;;;;;12.27;7.45;;;13.00;80.00;;;;;;5047402;28;20040;-70
2021/05/28 03:33:35;;;;;;;12.95;7.63;;;13.00;80.20;;;;;;5066965;28;20461;-70
2021/05/28 03:36:01;;;;;;;10.90;6.68;;;13.00;80.90;;;;;;5058950;28;20102;-70
2021/05/28 03:38:27;;;;;;;12.90;6.88;;;12.90;80.20;;;;;;5069091;28;20086;-70
2021/05/28 03:40:52;;;;;;;12.27;8.20;;;13.00;80.10;;;;;;5067387;28;20075;-70
2021/05/28 03:43:18;;;;;;;10.43;6.75;;;13.00;80.10;;;;;;5070558;28;20048;-70
2021/05/28 03:45:44;;;;;;;12.93;7.93;;;13.00;80.80;;;;;;5065220;28;20435;-70
2021/05/28 03:48:10;;;;;;;11.77;6.40;;;13.00;80.10;;;;;;5057379;28;20072;-70
2021/05/28 03:50:36;;;;;;;10.95;7.15;;;13.00;80.10;;;;;;5053968;28;20490;-71
2021/05/28 03:53:01;;;;;;;13.82;8.55;;;13.00;80.00;;;;;;5068936;28;20111;-70
2021/05/28 03:55:27;;;;;;;12.60;7.43;;;13.00;80.00;;;;;;5050015;28;20086;-70
2021/05/28 03:57:53;;;;;;;13.07;6.85;;;13.10;80.10;;;;;;5055674;28;20032;-70
2021/05/28 04:00:19;;;;;;;13.00;8.32;;;13.10;80.10;;;;;;5048817;28;20037;-71
2021/05/28 04:02:44;;;;;;;13.45;8.10;;;13.10;79.90;;;;;;5046108;28;20033;-70
2021/05/28 04:05:11;;;;;;;17.77;9.10;;;13.10;80.10;;;;;;5058395;28;20107;-70
2021/05/28 04:07:37;;;;;;;14.10;7.65;;;13.00;80.10;;;;;;5049497;28;20083;-70
2021/05/28 04:10:04;;;;;;;15.20;7.90;;;13.00;80.20;;;;;;5063257;28;20037;-70
2021/05/28 04:12:30;;;;;;;14.68;8.70;;;13.00;80.40;;;;;;5056657;28;20136;-70
2021/05/28 04:14:55;;;;;;;16.75;9.32;;;12.90;80.60;;;;;;5056147;28;20450;-70
2021/05/28 04:17:21;;;;;;;13.65;9.02;;;12.90;80.80;;;;;;5049625;28;20033;-70
2021/05/28 04:19:47;;;;;;;14.90;8.93;;;12.90;80.70;;;;;;5061663;28;20037;-70
2021/05/28 04:22:13;;;;;;;14.30;8.95;;;12.90;80.80;;;;;;5062183;28;20058;-70
2021/05/28 04:24:38;;;;;;;13.90;8.52;;;12.80;80.80;;;;;;5061688;28;20040;-70
2021/05/28 04:27:05;;;;;;;13.13;7.90;;;12.80;80.90;;;;;;5068824;28;20423;-70
2021/05/28 04:29:30;;;;;;;14.70;9.10;;;12.90;81.00;;;;;;5055842;28;20059;-70
2021/05/28 04:31:56;;;;;;;12.05;7.32;;;13.00;81.00;;;;;;5048558;28;20103;-70
2021/05/28 04:34:22;;;;;;;14.93;9.20;;;13.00;80.90;;;;;;5049582;28;20040;-70
2021/05/28 04:36:48;;;;;;;12.98;7.35;;;13.10;80.90;;;;;;5061956;28;20029;-70
2021/05/28 04:39:13;;;;;;;14.32;8.77;;;13.20;80.90;;;;;;5065234;28;20127;-70
2021/05/28 04:41:40;;;;;;;13.65;7.88;;;13.30;80.90;;;;;;5052228;28;20390;-70
2021/05/28 04:44:06;;;;;;;11.27;6.75;;;13.30;80.80;;;;;;5068090;28;20044;-70
2021/05/28 04:46:33;;;;;;;12.05;7.47;;;13.30;80.50;;;;;;5052475;28;20025;-70
2021/05/28 04:48:59;;;;;;;15.20;7.80;;;13.30;80.50;;;;;;5064812;28;20063;-70
2021/05/28 04:51:25;;;;;;;13.77;9.25;;;13.20;80.60;;;;;;5062017;28;20479;-70
2021/05/28 04:53:50;;;;;;;14.45;9.07;;;13.10;80.70;;;;;;5062115;28;20508;-70
2021/05/28 04:56:17;;;;;;;15.48;9.70;;;13.10;80.90;;;;;;5062100;28;20025;-70
2021/05/28 04:58:43;;;;;;;14.88;8.80;;;13.10;81.00;;;;;;5049177;28;20029;-70
2021/05/28 05:01:10;;;;;;;12.60;8.52;;;13.20;80.90;;;;;;5062301;28;20044;-69
2021/05/28 05:03:35;;;;;;;11.60;7.80;;;13.20;80.90;;;;;;5067468;28;20035;-70
2021/05/28 05:06:02;;;;;;;17.80;8.82;;;13.20;81.00;;;;;;5065532;28;20470;-70
2021/05/28 05:08:27;;;;;;;11.88;7.75;;;13.30;81.00;;;;;;5067213;28;20078;-70
2021/05/28 05:10:54;;;;;;;13.38;7.78;;;13.30;80.80;;;;;;5063281;28;20029;-70
2021/05/28 05:13:20;;;;;;;13.38;8.25;;;13.40;80.70;;;;;;5067138;28;20037;-69
2021/05/28 05:15:46;;;;;;;10.43;7.28;;;13.50;80.60;;;;;;5052343;28;20424;-71
2021/05/28 05:18:12;;;;;;;11.15;7.43;;;13.40;80.40;;;;;;5049302;28;20029;-69
2021/05/28 05:20:38;;;;;;;11.27;7.03;;;13.40;80.50;;;;;;5051553;28;20091;-69
2021/05/28 05:23:04;;;;;;;11.18;7.22;;;13.30;80.70;;;;;;5047349;28;20072;-69
2021/05/28 05:25:30;;;;;;;10.20;7.20;;;13.20;80.80;;;;;;5054509;28;20025;-69
2021/05/28 05:27:56;;;;;;;10.88;6.32;;;13.20;80.90;;;;;;5063639;28;20025;-69
2021/05/28 05:30:22;;;;;;;10.05;6.50;;;13.20;80.80;;;;;;5065336;28;20136;-68
2021/05/28 05:32:48;;;;;;;12.85;7.63;;;13.20;80.80;;;;;;5068574;28;20040;-69
2021/05/28 05:35:14;;;;;;;10.95;7.05;;;13.30;80.80;;;;;;5053066;28;20371;-69
2021/05/28 05:37:40;;;;;;;11.45;7.30;;;13.30;80.50;;;;;;5048060;28;20033;-69
2021/05/28 05:40:07;;;;;;;11.20;7.65;;;13.40;80.30;;;;;;5059787;28;20105;-69
2021/05/28 05:42:37;;;;;;;10.07;7.28;;;13.40;80.30;;;;;;5064640;28;20459;-70
2021/05/28 05:45:04;;;;;;;10.63;6.97;;;13.40;80.30;;;;;;5055997;28;20154;-70
2021/05/28 05:47:30;;;;;;;11.13;7.80;;;13.50;80.30;;;;;;5059460;28;20021;-70
2021/05/28 05:49:55;;;;;;;12.02;7.47;;;13.60;80.40;;;;;;5052586;28;20040;-70
2021/05/28 05:52:21;;;;;;;11.38;7.60;;;13.60;80.20;;;;;;5051611;28;20029;-69
2021/05/28 05:54:47;;;;;;;12.63;8.25;;;13.60;80.10;;;;;;5066206;28;20044;-69
2021/05/28 05:57:12;;;;;;;11.65;7.35;;;13.70;80.00;;;;;;5057688;28;20060;-69
2021/05/28 05:59:38;;;;;;;10.93;7.53;;;13.80;79.90;;;;;;5054165;28;20040;-69
2021/05/28 06:02:04;;;;;;;12.60;7.85;;;13.80;79.70;;;;;;5057684;28;20089;-70
2021/05/28 06:04:30;;;;;;;10.13;7.07;;;13.80;79.60;;;;;;5060052;28;20622;-71
2021/05/28 06:06:55;;;;;;;11.75;8.18;;;13.80;79.60;;;;;;5053646;28;20063;-70
2021/05/28 06:09:21;;;;;;;12.73;8.13;;;13.80;79.60;;;;;;5061277;28;20032;-70
2021/05/28 06:11:47;;;;;;;13.00;9.50;;;13.90;79.40;;;;;;5061682;28;20792;-71
2021/05/28 06:14:13;;;;;;;13.88;8.82;;;14.10;79.20;;;;;;5044845;28;20041;-71
2021/05/28 06:16:39;;;;;;;13.77;10.13;;;14.20;78.80;;;;;;5054544;28;20032;-70
2021/05/28 06:19:04;;;;;;;12.20;8.85;;;14.40;78.30;;;;;;5052678;28;20106;-70
2021/05/28 06:21:33;;;;;;;11.52;8.13;;;14.40;77.50;;;;;;5052626;28;20037;-71
2021/05/28 06:24:00;;;;;;;11.52;8.45;;;14.30;77.40;;;;;;5065253;28;20817;-71
2021/05/28 06:26:26;;;;;;;11.20;8.05;;;14.20;77.00;;;;;;5072310;28;20174;-71
2021/05/28 06:28:52;;;;;;;11.10;7.45;;;14.30;77.30;;;;;;5055075;28;20514;-70
2021/05/28 06:31:17;;;;;;;11.48;7.72;;;14.50;77.10;;;;;;5059412;28;20063;-70
2021/05/28 06:33:43;;;;;;;12.10;8.85;;;14.70;76.70;;;;;;5065645;28;20148;-71
2021/05/28 06:36:09;;;;;;;10.65;7.53;;;14.90;76.30;;;;;;5058510;28;20086;-71
2021/05/28 06:38:34;;;;;;;12.38;8.00;;;15.10;75.90;;;;;;5059266;28;20393;-70
2021/05/28 06:41:00;;;;;;;10.25;7.40;;;15.30;75.90;;;;;;5052949;28;20029;-70
2021/05/28 06:43:26;;;;;;;11.77;8.13;;;15.60;75.50;;;;;;5066796;28;20055;-70
2021/05/28 06:45:51;;;;;;;12.32;7.90;;;15.90;74.60;;;;;;5048496;28;20029;-70
2021/05/28 06:48:17;;;;;;;10.13;6.43;;;16.20;73.60;;;;;;5067548;28;20033;-70
2021/05/28 06:50:43;;;;;;;9.45;6.65;;;16.40;72.80;;;;;;5050188;28;20040;-69
2021/05/28 06:53:09;;;;;;;9.93;6.28;;;16.50;71.80;;;;;;5063906;28;20048;-69
2021/05/28 06:55:38;;;;;;;9.70;6.72;;;16.70;71.30;;;;;;5049570;28;20096;-69
2021/05/28 06:58:04;;;;;;;10.05;6.75;;;16.80;70.90;;;;;;5058326;28;20123;-69
2021/05/28 07:00:29;;;;;;;9.73;7.07;;;16.90;70.10;;;;;;5056317;28;20037;-69
2021/05/28 07:02:56;;;;;;;9.32;6.50;;;17.10;69.60;;;;;;5071077;28;20507;-70
2021/05/28 07:05:24;;;;;;;9.00;6.35;;;17.30;69.00;;;;;;5061376;28;20039;-69
2021/05/28 07:07:51;;;;;;;9.23;5.93;;;17.60;68.40;;;;;;5062998;28;20466;-69
2021/05/28 07:10:17;;;;;;;8.95;6.13;;;17.80;67.90;;;;;;5051555;28;20072;-69
2021/05/28 07:12:42;;;;;;;8.57;6.50;;;18.10;67.40;;;;;;5055963;28;20017;-69
2021/05/28 07:15:09;;;;;;;9.07;6.22;;;18.40;66.30;;;;;;5062694;28;20060;-69
2021/05/28 07:17:34;;;;;;;8.20;5.95;;;18.50;64.90;;;;;;5049544;28;20128;-69
2021/05/28 07:20:01;;;;;;;9.13;6.38;;;18.70;65.10;;;;;;5056639;28;20166;-69
2021/05/28 07:22:27;;;;;;;8.77;5.50;;;18.80;65.40;;;;;;5059765;28;20027;-69
2021/05/28 07:24:53;;;;;;;8.50;5.75;;;19.00;65.20;;;;;;5053815;28;20222;-69
2021/05/28 07:27:19;;;;;;;9.05;6.32;;;19.10;64.90;;;;;;5025586;28;20127;-70
2021/05/28 07:29:45;;;;;;;8.70;5.95;;;19.20;64.20;;;;;;5018576;28;20467;-69
2021/05/28 07:32:11;;;;;;;8.60;6.32;;;19.30;63.90;;;;;;5051949;28;20039;-70
2021/05/28 07:34:38;;;;;;;7.60;5.43;;;19.50;62.60;;;;;;5052750;28;20037;-68
2021/05/28 07:37:04;;;;;;;9.10;6.85;;;19.60;62.50;;;;;;5062828;28;20037;-70
2021/05/28 07:39:30;;;;;;;9.82;7.63;;;19.70;62.00;;;;;;5058007;28;20028;-68
2021/05/28 07:41:56;;;;;;;9.20;6.53;;;19.80;60.60;;;;;;5065623;28;20389;-69
2021/05/28 07:44:22;;;;;;;8.15;6.03;;;19.90;62.30;;;;;;5061248;28;20074;-69
2021/05/28 07:46:48;;;;;;;10.07;5.95;;;20.10;60.90;;;;;;5057255;28;20202;-69
2021/05/28 07:49:14;;;;;;;11.25;7.57;;;20.30;60.20;;;;;;5062261;28;20479;-69
2021/05/28 07:51:40;;;;;;;11.05;7.82;;;20.50;58.90;;;;;;5067333;28;20024;-69
2021/05/28 07:54:07;;;;;;;9.95;7.60;;;20.50;58.50;;;;;;5069262;28;20442;-70
2021/05/28 07:56:34;;;;;;;10.82;8.60;;;20.60;59.40;;;;;;5063645;28;20024;-69
2021/05/28 07:59:00;;;;;;;12.65;8.70;;;20.70;58.80;;;;;;5048406;28;20099;-69
2021/05/28 08:01:28;;;;;;;10.40;7.35;;;20.80;57.60;;;;;;5058476;28;20112;-70
2021/05/28 08:03:54;;;;;;;10.25;6.63;;;20.80;57.10;;;;;;5058964;28;20235;-70
2021/05/28 08:06:20;;;;;;;9.55;7.53;;;20.70;57.50;;;;;;5065550;28;20128;-69
2021/05/28 08:08:46;;;;;;;9.80;7.68;;;20.60;57.40;;;;;;5062747;28;20119;-69
2021/05/28 08:11:11;;;;;;;10.02;6.55;;;20.50;57.80;;;;;;5051813;28;20071;-69
2021/05/28 08:13:37;;;;;;;11.73;8.00;;;20.60;58.50;;;;;;5051677;28;20051;-69
2021/05/28 08:16:03;;;;;;;8.98;6.95;;;20.80;57.60;;;;;;5055826;28;20028;-69
2021/05/28 08:18:29;;;;;;;9.73;7.03;;;20.80;57.00;;;;;;5058033;28;20437;-69
2021/05/28 08:20:56;;;;;;;8.75;6.75;;;20.90;56.90;;;;;;5055771;28;20811;-69
2021/05/28 08:23:22;;;;;;;8.85;6.47;;;21.20;57.20;;;;;;5052120;28;20024;-69
2021/05/28 08:25:49;;;;;;;9.00;6.03;;;21.40;56.00;;;;;;5059430;28;20028;-69
2021/05/28 08:28:16;;;;;;;8.75;6.78;;;21.50;56.00;;;;;;5051014;28;20017;-69
2021/05/28 08:30:43;;;;;;;8.50;5.80;;;21.80;55.90;;;;;;5055051;28;20049;-70
2021/05/28 08:33:13;;;;;;;9.57;6.43;;;22.20;55.90;;;;;;5056863;28;20037;-69
2021/05/28 08:35:43;;;;;;;8.20;5.80;;;22.30;53.30;;;;;;5065116;28;20024;-70
2021/05/28 08:38:09;;;;;;;8.05;5.43;;;22.60;54.50;;;;;;5064671;28;20565;-70
2021/05/28 08:40:35;;;;;;;9.05;6.57;;;22.90;54.00;;;;;;5056381;28;20083;-69
2021/05/28 08:43:02;;;;;;;9.27;6.80;;;23.10;51.80;;;;;;5051037;28;20312;-69
2021/05/28 08:45:40;;;;;;;12.45;7.90;;;23.10;51.40;;;;;;5063137;28;20029;-70
2021/05/28 08:48:07;;;;;;;10.35;7.78;;;23.00;51.60;;;;;;5056937;28;20195;-69
2021/05/28 08:50:33;;;;;;;10.15;7.40;;;23.20;52.40;;;;;;5060625;28;20101;-70
2021/05/28 08:53:08;;;;;;;11.38;8.27;;;23.40;51.90;;;;;;5061663;28;20112;-69
2021/05/28 08:55:36;;;;;;;10.32;7.35;;;23.60;50.70;;;;;;5061980;28;20024;-70
2021/05/28 08:58:13;;;;;;;11.00;7.68;;;23.70;50.80;;;;;;5061588;28;20024;-69
2021/05/28 09:00:40;;;;;;;10.93;8.40;;;23.90;50.70;;;;;;5060488;28;20471;-70
2021/05/28 09:03:17;;;;;;;10.95;6.95;;;24.20;50.80;;;;;;5053092;28;20036;-69
2021/05/28 09:05:43;;;;;;;9.15;7.20;;;24.40;50.20;;;;;;5055540;28;20054;-69
2021/05/28 09:08:10;;;;;;;10.52;7.10;;;24.70;49.70;;;;;;5056847;28;20040;-69
2021/05/28 09:10:39;;;;;;;12.18;7.75;;;25.00;48.50;;;;;;5062486;28;20060;-69
2021/05/28 09:13:17;;;;;;;9.68;6.55;;;25.00;47.60;;;;;;5060127;28;20040;-69
2021/05/28 09:15:48;;;;;;;8.70;6.18;;;24.80;47.40;;;;;;5057646;28;20032;-69
2021/05/28 09:18:14;;;;;;;9.13;6.35;;;24.80;47.50;;;;;;5063143;28;20497;-69
2021/05/28 09:20:54;;;;;;;9.95;6.70;;;24.90;49.10;;;;;;5055984;28;20054;-70
2021/05/28 09:23:20;;;;;;;11.40;7.57;;;24.90;48.80;;;;;;5057089;28;20063;-69
2021/05/28 09:25:52;;;;;;;10.55;6.47;;;24.90;47.50;;;;;;5063757;28;20020;-69
2021/05/28 09:28:18;;;;;;;10.82;7.03;;;24.70;47.00;;;;;;5060236;28;20115;-69
2021/05/28 09:30:53;;;;;;;12.38;7.57;;;24.60;47.90;;;;;;5057758;28;20132;-69
2021/05/28 09:33:19;;;;;;;9.65;5.57;;;24.60;48.10;;;;;;5056361;28;20101;-70
2021/05/28 09:35:48;;;;;;;9.55;6.18;;;24.70;47.70;;;;;;5041041;28;20032;-69
2021/05/28 09:38:24;;;;;;;8.45;5.85;;;24.70;48.10;;;;;;5066689;28;20036;-69
2021/05/28 09:40:50;;;;;;;8.82;5.18;;;24.90;48.50;;;;;;5058785;28;20127;-69
2021/05/28 09:43:24;;;;;;;5.88;4.00;;;25.20;47.80;;;;;;5055020;28;20033;-68
2021/05/28 09:45:50;;;;;;;6.85;4.00;;;25.50;46.00;;;;;;5062406;28;20021;-69
2021/05/28 09:48:16;;;;;;;6.05;3.88;;;25.90;45.20;;;;;;5065015;28;20316;-69
2021/05/28 09:50:48;;;;;;;6.72;4.05;;;26.20;42.50;;;;;;5063687;28;20393;-70
2021/05/28 09:53:32;;;;;;;6.82;3.58;;;26.10;40.70;;;;;;5063445;28;20093;-68
2021/05/28 09:55:59;;;;;;;6.72;3.38;;;25.90;41.10;;;;;;5061334;28;20442;-68
2021/05/28 09:58:25;;;;;;;6.45;3.20;;;26.00;41.80;;;;;;5064066;28;20025;-68
2021/05/28 10:00:51;;;;;;;5.63;3.10;;;26.10;42.00;;;;;;5051913;28;20339;-70
2021/05/28 10:03:27;;;;;;;5.95;3.28;;;26.20;38.50;;;;;;5066838;28;20056;-69
2021/05/28 10:05:55;;;;;;;5.10;3.10;;;26.00;38.10;;;;;;5070129;28;20035;-70
2021/05/28 10:08:23;;;;;;;6.57;3.25;;;25.90;39.70;;;;;;5055064;28;20025;-69
2021/05/28 10:10:51;;;;;;;6.35;3.22;;;25.90;38.60;;;;;;5053976;28;20028;-69
2021/05/28 10:13:20;;;;;;;7.18;4.05;;;25.90;38.30;;;;;;5072252;28;20071;-69
2021/05/28 10:15:51;;;;;;;7.07;4.22;;;25.60;38.90;;;;;;5063419;28;20066;-70
2021/05/28 10:18:18;;;;;;;6.85;3.70;;;25.40;39.40;;;;;;5061190;28;20470;-70
2021/05/28 10:20:46;;;;;;;6.00;3.60;;;25.30;40.40;;;;;;5066528;28;20020;-70
2021/05/28 10:23:15;;;;;;;5.15;3.10;;;25.50;41.20;;;;;;5062595;28;20374;-69
2021/05/28 10:25:46;;;;;;;5.40;2.97;;;25.70;40.30;;;;;;5056652;28;20128;-70
2021/05/28 10:28:21;;;;;;;5.35;2.25;;;25.90;40.80;;;;;;5071535;28;20296;-70
2021/05/28 10:30:49;;;;;;;4.30;2.35;;;26.10;39.20;;;;;;5066194;28;20041;-70
2021/05/28 10:33:16;;;;;;;6.53;2.85;;;26.20;38.40;;;;;;5069394;28;20449;-70
2021/05/28 10:35:49;;;;;;;5.60;2.75;;;26.20;37.10;;;;;;5052979;28;20025;-69
2021/05/28 10:38:30;;;;;;;6.60;3.38;;;26.00;37.00;;;;;;5052907;28;20087;-70
2021/05/28 10:41:05;;;;;;;6.70;2.88;;;25.50;37.60;;;;;;5054663;28;20032;-69
2021/05/28 10:43:56;;;;;;;4.97;2.67;;;25.10;38.70;;;;;;5052031;28;20021;-69
2021/05/28 10:46:22;;;;;;;4.10;2.25;;;25.00;39.80;;;;;;5052096;28;20028;-70
2021/05/28 10:48:49;;;;;;;5.75;2.95;;;25.10;37.30;;;;;;5068351;28;20072;-70
2021/05/28 10:51:23;;;;;;;4.95;2.30;;;25.00;37.80;;;;;;5059226;28;20017;-69
2021/05/28 10:53:52;;;;;;;4.50;2.88;;;24.80;39.20;;;;;;5058366;28;20033;-70
2021/05/28 10:56:47;;;;;;;6.78;3.22;;;24.90;40.40;;;;;;5051530;28;20025;-70
2021/05/28 10:59:17;;;;;;;5.43;3.17;;;25.20;39.50;;;;;;5050999;28;20444;-67
2021/05/28 11:01:47;;;;;;;5.35;2.65;;;25.30;39.20;;;;;;5058531;28;20056;-68
2021/05/28 11:04:14;;;;;;;4.95;2.70;;;25.50;40.10;;;;;;5058119;28;20021;-69
2021/05/28 11:06:55;;;;;;;4.43;2.80;;;25.60;38.00;;;;;;5060612;28;20083;-68
2021/05/28 11:09:44;;;;;;;6.57;3.00;;;25.60;39.60;;;;;;5056708;28;20394;-68
2021/05/28 11:12:31;;;;;;;5.25;2.97;;;25.80;38.40;;;;;;5055371;28;20063;-68
2021/05/28 11:15:07;;;;;;;5.82;2.88;;;25.80;38.10;;;;;;5046343;28;20044;-69
2021/05/28 11:17:54;;;;;;;4.18;2.22;;;25.60;36.50;;;;;;5051139;28;20431;-69
2021/05/28 11:20:29;;;;;;;5.07;2.97;;;25.40;37.50;;;;;;5054238;28;20025;-69
2021/05/28 11:22:55;;;;;;;4.75;2.38;;;25.40;38.20;;;;;;5056142;28;20036;-68
2021/05/28 11:25:23;;;;;;;5.50;2.45;;;25.40;38.80;;;;;;5067950;28;20390;-69
2021/05/28 11:28:01;;;;;;;3.47;1.90;;;25.40;38.10;;;;;;5070649;28;20039;-68
2021/05/28 11:30:29;;;;;;;7.25;2.72;;;25.30;38.40;;;;;;5062675;28;20512;-68
2021/05/28 11:32:55;;;;;;;3.85;2.20;;;25.10;38.20;;;;;;5051391;28;20029;-68
2021/05/28 11:35:27;;;;;;;4.32;1.77;;;25.00;37.80;;;;;;5059186;28;21382;-69
2021/05/28 11:38:01;;;;;;;4.25;2.30;;;25.00;38.90;;;;;;5070909;28;20031;-69
2021/05/28 11:40:29;;;;;;;7.72;2.78;;;25.20;40.00;;;;;;5068112;28;20017;-69
2021/05/28 11:43:16;;;;;;;3.25;1.60;;;25.60;40.90;;;;;;5058451;28;20040;-69
2021/05/28 11:45:53;;;;;;;4.70;2.25;;;25.80;40.60;;;;;;5050081;28;20074;-68
2021/05/28 11:48:20;;;;;;;4.32;2.08;;;25.80;37.90;;;;;;5053998;28;20521;-68
2021/05/28 11:50:55;;;;;;;5.82;2.28;;;25.80;37.70;;;;;;5069071;28;20033;-68
2021/05/28 11:53:22;;;;;;;5.72;2.13;;;25.60;37.40;;;;;;5069230;28;20086;-68
2021/05/28 11:55:53;;;;;;;5.18;2.63;;;25.30;37.60;;;;;;5056358;28;20036;-68
2021/05/28 11:58:28;;;;;;;4.20;2.17;;;25.10;37.30;;;;;;5060345;28;20037;-68
2021/05/28 12:00:55;;;;;;;4.05;1.83;;;24.90;37.50;;;;;;5065268;28;20024;-68
2021/05/28 12:03:22;;;;;;;3.78;2.17;;;24.90;38.80;;;;;;5070285;28;20059;-68
2021/05/28 12:05:49;;;;;;;4.93;2.20;;;25.30;38.40;;;;;;5052472;28;20029;-68
2021/05/28 12:08:15;;;;;;;7.95;3.00;;;25.10;38.60;;;;;;5050427;28;20140;-68
2021/05/28 12:10:44;;;;;;;5.43;2.22;;;25.10;38.40;;;;;;5065496;28;20119;-70
2021/05/28 12:13:11;;;;;;;3.63;1.90;;;24.90;38.00;;;;;;5069964;28;20788;-70
2021/05/28 12:15:41;;;;;;;3.75;1.90;;;24.70;38.90;;;;;;5055275;28;20427;-69
2021/05/28 12:18:14;;;;;;;3.90;2.17;;;24.80;39.40;;;;;;5070251;28;20032;-70
2021/05/28 12:20:40;;;;;;;6.20;2.33;;;24.70;38.30;;;;;;5052118;28;20066;-69
2021/05/28 12:23:15;;;;;;;4.97;2.25;;;24.70;38.20;;;;;;5049958;28;20036;-69
2021/05/28 12:26:00;;;;;;;4.10;2.10;;;24.60;38.50;;;;;;5050448;28;20017;-69
2021/05/28 12:28:39;;;;;;;3.15;1.83;;;24.50;39.10;;;;;;5049069;28;20089;-69
2021/05/28 12:31:11;;;;;;;3.40;1.67;;;24.30;39.30;;;;;;5050024;28;20157;-70
2021/05/28 12:33:44;;;;;;;4.90;1.90;;;24.30;39.40;;;;;;5049041;28;20352;-69
2021/05/28 12:36:12;;;;;;;3.85;2.10;;;24.40;39.70;;;;;;5061872;28;20051;-69
2021/05/28 12:38:45;;;;;;;4.82;2.10;;;24.60;40.20;;;;;;5069762;28;20025;-69
2021/05/28 12:41:17;;;;;;;5.05;2.22;;;24.70;38.60;;;;;;5066386;28;20028;-69
2021/05/28 12:43:44;;;;;;;5.60;2.22;;;24.80;38.60;;;;;;5049985;28;20041;-68
2021/05/28 12:46:16;;;;;;;3.45;2.00;;;24.70;38.40;;;;;;5056200;28;20170;-68